Terminal Aerodrome Forecast
Issued by NWS

Home | Current Version | Previous Version | Text Only | Print | Product List | Glossary On
Versions: 1 2 3 4 5 6 7 8 9 10 11 12 13 14 15 16 17 18 19 20 21 22 23 24 25 26 27 28 29 30 31 32
000
FTUS41 KOKX 242340
TAFSWF
TAF
KSWF 242340Z 2500/2606 14007KT P6SM BKN070
     FM250300 11005KT 6SM -RA SCT025 OVC045
     FM250500 09006KT 5SM -RA SCT006 OVC015
     FM250800 09006KT 3SM -RA BR OVC006
      TEMPO 2512/2516 1SM +RA BR
     FM251600 09007KT 1SM SHRA BR OVC006
     FM251900 VRB03KT 1/2SM -SHRA FG OVC004
      AMD NOT SKED=

USA.gov is the U.S. government's official web portal to all federal, state and local government web resources and services.